Aktuell sind 344 Gäste und 3 Mitglieder online

[source: ADDS]
METAR
EDVE 161150Z 13009KT CAVOK M00/M05 Q1012

TAF EDVE 161100Z 1612/1621 12010KT 9999 SCT035 BECMG 1613/1615 19007KT BKN014 TEMPO 1614/1618 2500 -SN BKN009 EDDV 161150Z 15007KT 120V180 9999 BKN030 00/M05 Q1012 NOSIG

TAF EDDV 161100Z 1612/1712 12012KT 9999 BKN020 BECMG 1614/1618 11007KT 4000 BR BKN013 TEMPO 1614/1706 2000 -SN BKN006 BECMG 1620/1623 17003KT PROB30 TEMPO 1622/1706 0800 -FZDZ BKN002 TEMPO 1706/1712 2000 -DZRA BKN002 PROB30 TEMPO 1706/1711 0700 FG BKN001 ETHS 161120Z 17010KT 9999 FEW020 BKN090 M00/M05 Q1012 BLU

ETHC 161120Z 12008KT 9999 FEW050 BKN080 00/M04 Q1012 BLU

EDVK 161150Z 14008KT 6000 FEW008 BKN010 M02/M04 Q1011

TAF EDVK 161100Z 1612/1621 14009KT 3500 -SN BR BKN015 TEMPO 1612/1617 0400 SN FZFG OVC004 TEMPO 1617/1621 1200 BR BKN005
TAF
TAF EDVE 161100Z 1612/1621 12010KT 9999 SCT035 BECMG 1613/1615 19007KT BKN014 TEMPO 1614/1618 2500 -SN BKN009

TAF EDDV 161100Z 1612/1712 12012KT 9999 BKN020 BECMG 1614/1618 11007KT 4000 BR BKN013 TEMPO 1614/1706 2000 -SN BKN006 BECMG 1620/1623 17003KT PROB30 TEMPO 1622/1706 0800 -FZDZ BKN002 TEMPO 1706/1712 2000 -DZRA BKN002 PROB30 TEMPO 1706/1711 0700 FG BKN001

TAF EDVK 161100Z 1612/1621 14009KT 3500 -SN BR BKN015 TEMPO 1612/1617 0400 SN FZFG OVC004 TEMPO 1617/1621 1200 BR BKN005

SR / SS: 07:21 / 15:05 UTC (EDVE 2018-12-16)
Dirk hat die praktische Prüfung bestanden! Herzlichen Glückwunsch und always happy landings! +++ Herzlich Willkommen bei der FFG Ilya und viel Spaß bei deiner Ausbildung! +++ Wir begrüßen unser neues Mitglied Mathias! Viel Erfolg bei deiner PPL-Ausbildung! +++ Unsere neue Aquila, die D-EZOM ist nach langem Warten endlich in Braunschweig eingetroffen! +++ Herzlich Willkommen in der FFG Gero! +++ David hat die PPL Prüfung bestanden! Herzlichen Glückwunsch und always Happy Landings! +++ Willkommen im Verein Oliver! Viel Erfolg bei der Ausbildung! +++ Schon wieder ein neues Mitglied! Wilkommen Emmanuel und viel Spaß bei der Ausbildung! +++ Hallo Maximilian, herzlich willkommen in der FFG und viel Erfolg für deine Ausbildung!

 

Das Prinzip des Heizgerätes zum Vorheizen unserer Flugzeuge ist einfach: Ein Gasbrenner erhitzt Luft und bläst sie in eine Blechkiste. Dort beschleunigt ein großer Lüfter die Luft und drückt sie durch Luftschläuche in den Motorraum eines Flugzeuges. Nach etwa 20-30 Minuten Vorheizzeit ist eine ausreichende Temperatur zum Motorstart vorhanden.

Weiterlesen ...

Auch im Winter stehen unsere Flugzeuge sicher untergebracht in unserer Halle. Schneelast- und sturmwinderprobt ist sie bereits und hat diese Wettereinflüsse prima überstanden. Im Winter sind bei Schnee und Eis ein paar Erfahrungswerte nützlich:

Weiterlesen ...

Die Halle erlaubt eine einfache Aufstellung der Luftfahrzeuge. Jedem Flugzeug ist ein fester Platz zugewiesen der es erlaubt, mit geringem Aufwand das gewünschte Flugzeug nach vorne zu holen. Ziel bei der gewählten Aufstellung ist es,

Weiterlesen ...

Das Tor der Halle ist ein sogenanntes Planentor, es funktioniert ungefähr so wie ein Duschvorhang. Die linke und die rechte Hälfte des Tores waren in der Mitte durch sechs Gurte verbunden (drei an der Innenseite, drei an der Außenseite), wenn das Tor geschlossen ist.

Der obere Gurt (innen und außen) ist für normal große Leute

Weiterlesen ...

Die installierte elektrische Anlage ist wartungsfrei. Das Licht wird automatisch, durch Bewegungssensoren gesteuert, ein- und ausgeschaltet.

Weiterlesen ...

Letztes NOTAM EDVE
von 13.12.2018 0823Z bis 09.02.2019 2359Z
DUE TO OUTAGE OF DLE DVOR/DME THE FLW CHANGES TO SID OCCUR: GPS/FMS RNAV OVERLAY REMAIN UNCHANGED. AMEND DLE DVOR/DME TO READ DLE INT. [more]

Letztes NOTAM EDCB
von 14.12.2018 1050Z bis 31.03.2019 1823Z
GRASS RWY 09/27 CLSD.

Letztes NOTAM EDBC
von 03.12.2018 0827Z bis 02.03.2019 2359Z
ILS RWY 26 OUT OF SERVICE.

Letztes NOTAM EDVM
von 19.11.2018 0900Z bis PERM
HILDESHEIM INFO CHANGED TO 118.310 (8.33KHZ).

Letztes NOTAM EDOV
von 24.12.2018 0000Z bis 06.01.2019 2359Z
AERODROME CLOSED.

Letztes NOTAM EDVI
von 17.12.2018 0000Z bis 28.02.2019 2359Z
AD PPR, TEL +49(0)163 5744126.

Letztes NOTAM EDDV
von 03.12.2018 1426Z bis PERM
NEW RADIO FREQUENCY FOR DE-ICING OF ACFT: CALL SIGN HANNOVER DE-ICING, 121.780 (8.33KHZ). REF AIP AD2 EDDV 1-14 ITEM 16.3.4.

Letztes NOTAM EDVK
von 01.12.2018 1700Z bis PERM
KASSEL TWR FREQ CHANGED TO 118.105 (8.33KHZ), KASSEL GND FREQ CHANGED TO 121.905 (8.33KHZ), KASSEL ATIS FREQ CHANGED TO 129.205 (8.33KHZ).

          aerodata150     Radio38